Fort Huachuca, Arizona
Current Conditions -  °F | °C
As of 6:55 PM on Thursday 18 Dec 2014 (Local Time) from KFHU Reporting Station
Few Clouds Few Clouds  
Wind Chill: 35°   Ceiling: Unl
Heat Index: 39°   Visibility: 10mi
Dew Point: 37°   Wind: 6mph
Humidity: 93%   Direction: 250°WSW
Pressure: 30.15"   Gusts: NA
Location:  31.6°N, 110.35°W
Report Text: KFHU 190155Z 25005KT 10SM FEW028 04/03 A3015 RMK SLP206
Loading
Personal Weather Stations






























Interactive Weather Map New forecast layout! Learn more

10-Day Weather Forecast

Advertisements
Track Severe Weather on mobile